createdAt,value
2024-05-09T00:03:11.357Z,19.15
2024-05-09T00:05:40.563Z,20.23
2024-05-09T00:08:08.474Z,19.02
2024-05-09T00:10:37.820Z,19.30
2024-05-09T00:13:06.529Z,19.38
2024-05-09T00:15:34.170Z,19.15
2024-05-09T00:18:01.714Z,18.02
2024-05-09T00:20:36.456Z,15.05
2024-05-09T00:23:09.534Z,15.68
2024-05-09T00:25:36.648Z,18.02
2024-05-09T00:28:03.555Z,18.45
2024-05-09T00:30:34.909Z,22.13
2024-05-09T00:33:04.919Z,19.60
2024-05-09T00:35:32.595Z,18.45
2024-05-09T00:37:59.396Z,14.73
2024-05-09T00:40:35.619Z,17.60
2024-05-09T00:43:06.530Z,17.30
2024-05-09T00:45:34.788Z,20.20
2024-05-09T00:48:02.997Z,17.92
2024-05-09T00:50:35.851Z,16.42
2024-05-09T00:53:05.158Z,19.63
2024-05-09T00:55:32.007Z,18.02
2024-05-09T00:57:58.735Z,19.25
2024-05-09T01:00:31.806Z,19.02
2024-05-09T01:03:05.799Z,16.98
2024-05-09T01:05:32.863Z,17.15
2024-05-09T01:07:59.636Z,20.27
2024-05-09T01:10:33.591Z,20.60
2024-05-09T01:13:02.011Z,19.25
2024-05-09T01:15:28.666Z,18.98
2024-05-09T01:17:56.507Z,17.33
2024-05-09T01:20:32.095Z,20.17
2024-05-09T01:23:07.219Z,19.85
2024-05-09T01:25:34.038Z,21.27
2024-05-09T01:28:00.786Z,17.15
2024-05-09T01:30:34.078Z,19.70
2024-05-09T01:33:03.367Z,19.85
2024-05-09T01:35:30.479Z,21.13
2024-05-09T01:37:57.236Z,20.23
2024-05-09T01:40:33.434Z,19.88
2024-05-09T01:43:04.599Z,16.75
2024-05-09T01:45:31.354Z,15.05
2024-05-09T01:47:58.386Z,17.88
2024-05-09T01:50:36.709Z,19.45
2024-05-09T01:53:07.268Z,19.27
2024-05-09T01:55:33.964Z,22.38
2024-05-09T01:58:00.658Z,18.92
2024-05-09T02:00:37.936Z,20.67
2024-05-09T02:03:15.423Z,18.27
2024-05-09T02:05:48.125Z,15.07
2024-05-09T02:08:16.751Z,14.82
2024-05-09T02:10:47.469Z,17.25
2024-05-09T02:13:14.858Z,19.65
2024-05-09T02:15:41.630Z,20.50
2024-05-09T02:18:09.163Z,19.42
2024-05-09T02:20:38.186Z,13.32
2024-05-09T02:23:06.562Z,18.45
2024-05-09T02:25:33.942Z,15.60
2024-05-09T02:28:00.883Z,15.90
2024-05-09T02:30:37.938Z,15.75
2024-05-09T02:33:08.717Z,17.77
2024-05-09T02:35:36.333Z,15.48
2024-05-09T02:38:03.266Z,18.55
2024-05-09T02:40:36.628Z,18.23
2024-05-09T02:43:05.929Z,12.27
2024-05-09T02:45:33.109Z,17.08
2024-05-09T02:48:00.186Z,14.93
2024-05-09T02:50:34.459Z,15.85
2024-05-09T02:53:05.662Z,17.85
2024-05-09T02:55:32.790Z,16.17
2024-05-09T02:57:59.668Z,15.02
2024-05-09T03:00:34.717Z,12.50
2024-05-09T03:03:06.749Z,13.35
2024-05-09T03:05:33.768Z,14.68
2024-05-09T03:08:00.540Z,18.10
2024-05-09T03:10:29.176Z,15.02
2024-05-09T03:13:05.454Z,15.30
2024-05-09T03:15:33.237Z,15.27
2024-05-09T03:18:01.170Z,13.30
2024-05-09T03:20:33.538Z,16.17
2024-05-09T03:23:02.351Z,18.23
2024-05-09T03:25:29.164Z,13.52
2024-05-09T03:27:55.830Z,12.07
2024-05-09T03:30:31.273Z,19.55
2024-05-09T03:33:09.666Z,13.00
2024-05-09T03:35:36.574Z,15.05
2024-05-09T03:38:03.411Z,16.80
2024-05-09T03:40:31.123Z,15.45
2024-05-09T03:42:58.912Z,15.02
2024-05-09T03:45:25.702Z,16.30
2024-05-09T03:47:52.859Z,14.75
2024-05-09T03:50:26.460Z,14.00
2024-05-09T03:53:00.527Z,14.68
2024-05-09T03:55:27.385Z,18.58
2024-05-09T03:57:54.065Z,14.40
2024-05-09T04:00:30.455Z,12.32
2024-05-09T04:03:02.983Z,18.88
2024-05-09T04:05:31.145Z,16.23
2024-05-09T04:07:59.477Z,13.52
2024-05-09T04:10:32.864Z,15.40
2024-05-09T04:13:01.346Z,15.10
2024-05-09T04:15:28.092Z,15.05
2024-05-09T04:17:54.998Z,12.07
2024-05-09T04:20:32.842Z,14.73
2024-05-09T04:23:05.431Z,13.38
2024-05-09T04:25:32.373Z,13.98
2024-05-09T04:27:59.067Z,13.13
2024-05-09T04:30:34.678Z,15.70
2024-05-09T04:33:06.910Z,14.50
2024-05-09T04:35:34.776Z,14.13
2024-05-09T04:38:01.605Z,13.02
2024-05-09T04:40:33.728Z,14.40
2024-05-09T04:43:03.215Z,11.85
2024-05-09T04:45:30.149Z,13.05
2024-05-09T04:47:56.976Z,14.90
2024-05-09T04:50:33.184Z,14.13
2024-05-09T04:53:04.082Z,13.93
2024-05-09T04:55:30.881Z,14.60
2024-05-09T04:57:57.666Z,13.73
2024-05-09T05:00:32.528Z,13.10
2024-05-09T05:03:07.227Z,14.88
2024-05-09T05:05:36.348Z,13.68
2024-05-09T05:08:03.085Z,14.85
2024-05-09T05:10:35.681Z,14.65
2024-05-09T05:13:17.955Z,15.40
2024-05-09T05:15:46.148Z,15.05
2024-05-09T05:18:12.982Z,13.05
2024-05-09T05:20:39.711Z,16.15
2024-05-09T05:23:10.305Z,15.15
2024-05-09T05:25:37.102Z,15.98
2024-05-09T05:28:03.879Z,16.10
2024-05-09T05:30:34.552Z,14.57
2024-05-09T05:33:02.081Z,20.83
2024-05-09T05:35:28.995Z,17.88
2024-05-09T05:37:55.783Z,16.48
2024-05-09T05:40:32.007Z,15.32
2024-05-09T05:43:03.040Z,13.10
2024-05-09T05:45:29.732Z,27.40
2024-05-09T05:47:56.750Z,14.25
2024-05-09T05:50:28.149Z,15.55
2024-05-09T05:53:02.202Z,15.20
2024-05-09T05:55:29.099Z,15.00
2024-05-09T05:57:55.783Z,11.55
2024-05-09T06:00:29.750Z,13.85
2024-05-09T06:03:04.382Z,12.98
2024-05-09T06:05:31.264Z,12.27
2024-05-09T06:07:58.087Z,13.05
2024-05-09T06:10:30.069Z,12.77
2024-05-09T06:13:04.019Z,10.20
2024-05-09T06:15:30.683Z,13.77
2024-05-09T06:17:57.540Z,11.02
2024-05-09T06:20:33.891Z,12.10
2024-05-09T06:23:03.518Z,12.07
2024-05-09T06:25:30.354Z,11.88
2024-05-09T06:27:57.006Z,8.60
2024-05-09T06:30:35.036Z,10.95
2024-05-09T06:33:06.377Z,9.48
2024-05-09T06:35:34.056Z,9.55
2024-05-09T06:38:01.182Z,9.93
2024-05-09T06:40:35.879Z,9.93
2024-05-09T06:45:31.957Z,8.05
2024-05-09T06:47:58.738Z,9.98
2024-05-09T06:50:28.538Z,11.27
2024-05-09T06:53:02.327Z,12.40
2024-05-09T06:55:29.280Z,10.60
2024-05-09T06:57:56.162Z,11.00
2024-05-09T07:00:30.498Z,10.70
2024-05-09T07:03:12.940Z,9.00
2024-05-09T07:05:41.807Z,7.00
2024-05-09T07:08:08.608Z,8.57
2024-05-09T07:10:36.539Z,9.43
2024-05-09T07:13:07.712Z,7.85
2024-05-09T07:15:34.366Z,8.85
2024-05-09T07:18:01.242Z,9.00
2024-05-09T07:20:34.188Z,7.65
2024-05-09T07:23:02.938Z,9.43
2024-05-09T07:25:30.007Z,10.07
2024-05-09T07:27:56.997Z,10.05
2024-05-09T07:30:32.613Z,13.13
2024-05-09T07:35:28.038Z,8.82
2024-05-09T07:37:54.858Z,8.70
2024-05-09T07:40:29.018Z,8.35
2024-05-09T07:43:06.695Z,8.20
2024-05-09T07:52:23.526Z,8.30
2024-05-09T07:53:38.530Z,7.40
2024-05-09T07:56:07.042Z,8.65
2024-05-09T07:58:34.019Z,7.63
2024-05-09T08:01:02.724Z,7.32
2024-05-09T08:03:29.604Z,8.48
2024-05-09T08:05:56.400Z,9.50
2024-05-09T08:08:23.147Z,13.13
2024-05-09T08:10:50.578Z,13.32
2024-05-09T08:13:17.600Z,8.10
2024-05-09T08:15:44.360Z,9.82
2024-05-09T08:18:11.515Z,9.38
2024-05-09T08:20:38.838Z,8.57
2024-05-09T08:23:05.761Z,7.68
2024-05-09T08:25:32.415Z,9.65
2024-05-09T08:27:59.077Z,10.60
2024-05-09T08:30:32.849Z,10.05
2024-05-09T08:33:03.693Z,8.43
2024-05-09T08:35:30.471Z,8.60
2024-05-09T08:37:57.329Z,9.23
2024-05-09T08:40:30.959Z,8.07
2024-05-09T08:43:02.715Z,7.78
2024-05-09T08:45:29.738Z,10.57
2024-05-09T08:47:56.765Z,8.07
2024-05-09T08:50:31.676Z,6.63
2024-05-09T08:53:05.137Z,8.85
2024-05-09T08:55:31.902Z,7.75
2024-05-09T08:57:59.362Z,4.95
2024-05-09T09:00:35.660Z,5.70
2024-05-09T09:03:07.836Z,4.70
2024-05-09T09:05:38.055Z,4.90
2024-05-09T09:08:06.769Z,4.40
2024-05-09T09:10:33.745Z,8.48
2024-05-09T09:13:09.781Z,5.22
2024-05-09T09:15:47.160Z,6.80
2024-05-09T09:18:14.990Z,3.90
2024-05-09T09:20:41.979Z,4.75
2024-05-09T09:23:09.025Z,6.00
2024-05-09T09:25:35.803Z,5.97
2024-05-09T09:28:02.449Z,6.40
2024-05-09T09:30:36.363Z,6.40
2024-05-09T09:33:05.854Z,5.05
2024-05-09T09:35:32.971Z,6.55
2024-05-09T09:38:02.147Z,4.95
2024-05-09T09:40:35.087Z,4.70
2024-05-09T09:43:07.296Z,3.47
2024-05-09T09:45:36.014Z,5.22
2024-05-09T09:48:02.966Z,3.45
2024-05-09T09:50:34.387Z,4.50
2024-05-09T09:53:03.225Z,3.35
2024-05-09T09:55:31.565Z,3.60
2024-05-09T09:57:58.322Z,4.80
2024-05-09T10:00:32.383Z,5.30
2024-05-09T10:03:00.697Z,4.93
2024-05-09T10:05:28.305Z,5.70
2024-05-09T10:07:55.744Z,5.47
2024-05-09T10:10:31.989Z,7.10
2024-05-09T10:13:00.739Z,3.35
2024-05-09T10:15:27.781Z,5.78
2024-05-09T10:17:54.729Z,4.47
2024-05-09T10:20:25.138Z,3.55
2024-05-09T10:22:54.893Z,5.57
2024-05-09T10:25:21.913Z,5.28
2024-05-09T10:27:54.875Z,5.72
2024-05-09T10:32:54.285Z,4.05
2024-05-09T10:35:22.817Z,4.05
2024-05-09T10:37:51.235Z,5.10
2024-05-09T10:40:26.034Z,5.53
2024-05-09T10:43:50.358Z,3.70
2024-05-09T10:46:19.399Z,4.05
2024-05-09T10:48:47.667Z,5.00
2024-05-09T10:51:14.782Z,6.55
2024-05-09T10:53:42.531Z,3.85
2024-05-09T10:56:09.348Z,7.03
2024-05-09T10:58:36.132Z,5.93
2024-05-09T11:01:06.408Z,4.10
2024-05-09T11:03:34.363Z,4.47
2024-05-09T11:06:01.367Z,3.80
2024-05-09T11:08:28.311Z,3.55
2024-05-09T11:10:56.185Z,5.88
2024-05-09T11:13:41.247Z,4.03
2024-05-09T11:16:20.236Z,3.60
2024-05-09T11:18:58.998Z,3.85
2024-05-09T11:21:26.148Z,3.25
2024-05-09T11:23:53.058Z,4.60
2024-05-09T11:26:21.672Z,4.20
2024-05-09T11:28:48.436Z,6.35
2024-05-09T11:31:15.171Z,4.78
2024-05-09T11:34:26.538Z,3.90
2024-05-09T11:36:53.369Z,3.55
2024-05-09T11:39:20.025Z,5.20
2024-05-09T11:41:46.671Z,2.80
2024-05-09T11:44:13.372Z,3.50
2024-05-09T11:46:40.101Z,3.38
2024-05-09T11:49:06.877Z,5.40
2024-05-09T11:51:33.756Z,4.05
2024-05-09T11:54:00.492Z,2.58
2024-05-09T11:56:27.226Z,3.83
2024-05-09T11:58:53.976Z,5.53
2024-05-09T12:01:21.344Z,3.42
2024-05-09T12:03:51.641Z,4.75
2024-05-09T12:06:18.492Z,3.55
2024-05-09T12:08:45.204Z,5.25
2024-05-09T12:11:13.940Z,3.20
2024-05-09T12:13:40.654Z,3.95
2024-05-09T12:16:07.545Z,3.70
2024-05-09T12:18:34.530Z,5.35
2024-05-09T12:21:01.583Z,3.88
2024-05-09T12:23:28.366Z,2.47
2024-05-09T12:25:55.064Z,3.75
2024-05-09T12:28:21.952Z,3.65
2024-05-09T12:30:49.969Z,3.03
2024-05-09T12:33:16.979Z,3.72
2024-05-09T12:35:46.548Z,3.55
2024-05-09T12:38:15.434Z,5.38
2024-05-09T12:40:42.602Z,4.10
2024-05-09T12:43:10.631Z,3.58
2024-05-09T12:45:38.620Z,4.25
2024-05-09T12:48:08.508Z,3.47
2024-05-09T12:50:35.692Z,3.63
2024-05-09T12:53:03.716Z,2.63
2024-05-09T12:55:37.332Z,3.75
2024-05-09T12:58:11.360Z,2.58
2024-05-09T13:00:38.342Z,2.50
2024-05-09T13:03:05.270Z,2.95
2024-05-09T13:05:32.334Z,4.68
2024-05-09T13:08:00.731Z,7.85
2024-05-09T13:10:32.141Z,3.83
2024-05-09T13:13:00.891Z,4.53
2024-05-09T13:15:28.361Z,3.45
2024-05-09T13:17:57.928Z,4.63
2024-05-09T13:20:32.378Z,3.25
2024-05-09T13:23:01.582Z,3.70
2024-05-09T13:25:28.268Z,4.53
2024-05-09T13:27:55.080Z,3.53
2024-05-09T13:30:29.491Z,2.45
2024-05-09T13:33:05.176Z,3.35
2024-05-09T13:35:32.373Z,4.43
2024-05-09T13:37:59.111Z,4.20
2024-05-09T13:40:32.723Z,3.38
2024-05-09T13:43:02.183Z,4.68
2024-05-09T13:45:29.132Z,3.72
2024-05-09T13:47:56.059Z,5.43
2024-05-09T13:50:31.154Z,3.83
2024-05-09T13:53:02.036Z,3.15
2024-05-09T13:55:28.860Z,3.20
2024-05-09T13:57:55.697Z,3.97
2024-05-09T14:00:32.318Z,3.80
2024-05-09T14:03:09.578Z,3.80
2024-05-09T14:05:36.798Z,2.65
2024-05-09T14:08:03.815Z,3.28
2024-05-09T14:10:31.973Z,3.50
2024-05-09T14:13:00.273Z,4.97
2024-05-09T14:15:27.214Z,4.35
2024-05-09T14:17:54.494Z,6.10
2024-05-09T14:22:50.845Z,3.60
2024-05-09T14:25:17.613Z,2.90
2024-05-09T14:27:44.463Z,3.20
2024-05-09T14:30:18.272Z,2.58
2024-05-09T14:32:52.729Z,2.63
2024-05-09T14:35:19.641Z,3.08
2024-05-09T14:37:46.347Z,2.75
2024-05-09T14:40:30.388Z,4.13
2024-05-09T14:43:03.255Z,3.35
2024-05-09T14:45:30.217Z,4.65
2024-05-09T14:47:57.219Z,2.10
2024-05-09T14:50:32.534Z,3.92
2024-05-09T14:53:03.516Z,3.08
2024-05-09T14:55:30.650Z,3.38
2024-05-09T14:57:57.445Z,4.78
2024-05-09T15:00:28.945Z,3.75
2024-05-09T15:03:00.791Z,4.18
2024-05-09T15:05:27.608Z,3.55
2024-05-09T15:07:54.495Z,6.00
2024-05-09T15:10:27.473Z,3.22
2024-05-09T15:13:01.216Z,2.28
2024-05-09T15:15:27.961Z,4.03
2024-05-09T15:17:55.171Z,4.25
2024-05-09T15:20:30.777Z,3.55
2024-05-09T15:23:01.787Z,2.88
2024-05-09T15:25:28.618Z,3.10
2024-05-09T15:27:55.438Z,2.67
2024-05-09T15:30:29.576Z,3.80
2024-05-09T15:32:58.581Z,3.05
2024-05-09T15:35:25.244Z,3.83
2024-05-09T15:37:51.868Z,4.10
2024-05-09T15:40:26.569Z,3.30
2024-05-09T15:43:02.541Z,2.63
2024-05-09T15:45:29.669Z,3.50
2024-05-09T15:47:56.941Z,1.80
2024-05-09T15:50:35.091Z,3.55
2024-05-09T15:53:06.124Z,3.17
2024-05-09T15:55:34.705Z,3.20
2024-05-09T15:58:02.639Z,3.35
2024-05-09T16:00:37.439Z,2.30
2024-05-09T16:03:08.190Z,3.97
2024-05-09T16:05:35.136Z,4.65
2024-05-09T16:08:02.054Z,3.25
2024-05-09T16:10:32.756Z,3.25
2024-05-09T16:13:01.596Z,8.07
2024-05-09T16:15:28.689Z,3.65
2024-05-09T16:17:55.601Z,5.07
2024-05-09T16:20:33.917Z,5.07
2024-05-09T16:23:05.967Z,2.83
2024-05-09T16:25:32.664Z,2.92
2024-05-09T16:27:59.679Z,3.65
2024-05-09T16:30:33.742Z,3.20
2024-05-09T16:33:03.019Z,3.35
2024-05-09T16:35:30.160Z,7.03
2024-05-09T16:37:57.365Z,3.75
2024-05-09T16:40:33.167Z,2.88
2024-05-09T16:43:04.697Z,2.08
2024-05-09T16:45:31.848Z,4.32
2024-05-09T16:47:59.662Z,3.60
2024-05-09T16:50:32.209Z,2.03
2024-05-09T16:53:01.004Z,4.47
2024-05-09T16:55:27.894Z,1.83
2024-05-09T16:57:55.628Z,3.25
2024-05-09T17:00:31.767Z,3.05
2024-05-09T17:03:07.165Z,2.85
2024-05-09T17:05:34.891Z,4.68
2024-05-09T17:08:02.132Z,3.10
2024-05-09T17:10:33.065Z,4.05
2024-05-09T17:13:01.879Z,2.83
2024-05-09T17:15:28.709Z,2.15
2024-05-09T17:17:55.714Z,2.72
2024-05-09T17:20:29.671Z,5.43
2024-05-09T17:23:01.719Z,3.03
2024-05-09T17:25:28.518Z,3.80
2024-05-09T17:27:55.429Z,5.10
2024-05-09T17:30:29.081Z,5.00
2024-05-09T17:33:02.037Z,3.25
2024-05-09T17:35:29.004Z,3.45
2024-05-09T17:37:55.712Z,2.13
2024-05-09T17:40:30.857Z,2.53
2024-05-09T17:43:01.623Z,2.13
2024-05-09T17:45:28.520Z,3.30
2024-05-09T17:47:55.558Z,2.05
2024-05-09T17:50:30.234Z,3.92
2024-05-09T17:53:01.538Z,5.57
2024-05-09T17:55:28.824Z,2.60
2024-05-09T17:57:55.854Z,3.10
2024-05-09T18:00:33.067Z,6.70
2024-05-09T18:03:05.402Z,2.10
2024-05-09T18:05:32.375Z,3.63
2024-05-09T18:07:59.290Z,2.25
2024-05-09T18:10:33.135Z,2.40
2024-05-09T18:13:04.246Z,3.65
2024-05-09T18:15:31.031Z,3.15
2024-05-09T18:17:58.144Z,4.40
2024-05-09T18:20:33.171Z,4.50
2024-05-09T18:23:08.135Z,2.78
2024-05-09T18:25:35.148Z,3.03
2024-05-09T18:28:02.843Z,2.60
2024-05-09T18:30:34.744Z,7.68
2024-05-09T18:33:03.578Z,2.90
2024-05-09T18:35:30.520Z,3.30
2024-05-09T18:37:57.204Z,3.65
2024-05-09T18:42:53.505Z,2.42
2024-05-09T18:45:20.260Z,2.38
2024-05-09T18:47:47.064Z,4.38
2024-05-09T18:50:20.551Z,3.10
2024-05-09T18:52:54.419Z,4.13
2024-05-09T18:55:21.186Z,4.03
2024-05-09T18:57:47.927Z,4.47
2024-05-09T19:00:26.658Z,6.82
2024-05-09T19:03:00.582Z,2.42
2024-05-09T19:05:27.958Z,3.78
2024-05-09T19:07:54.752Z,4.65
2024-05-09T19:10:23.092Z,2.67
2024-05-09T19:12:52.953Z,4.05
2024-05-09T19:15:19.701Z,4.78
2024-05-09T19:17:47.479Z,3.28
2024-05-09T19:20:24.835Z,4.50
2024-05-09T19:22:55.470Z,4.43
2024-05-09T19:25:22.135Z,4.82
2024-05-09T19:27:49.000Z,3.33
2024-05-09T19:30:25.078Z,2.60
2024-05-09T19:33:00.797Z,2.47
2024-05-09T19:35:27.520Z,3.42
2024-05-09T19:37:54.252Z,2.97
2024-05-09T19:40:28.805Z,2.60
2024-05-09T19:42:58.639Z,2.97
2024-05-09T19:45:25.467Z,3.33
2024-05-09T19:47:52.448Z,3.35
2024-05-09T19:50:26.802Z,5.00
2024-05-09T19:53:02.265Z,8.38
2024-05-09T19:55:28.948Z,5.70
2024-05-09T19:57:55.684Z,65.18
2024-05-09T20:00:29.218Z,138.80
2024-05-09T20:03:02.107Z,57.75
2024-05-09T20:05:31.224Z,42.55
2024-05-09T20:07:58.247Z,28.40
2024-05-09T20:10:31.108Z,11.60
2024-05-09T20:12:59.747Z,5.10
2024-05-09T20:15:26.741Z,8.32
2024-05-09T20:17:53.787Z,40.10
2024-05-09T20:20:28.684Z,29.95
2024-05-09T20:23:03.186Z,32.25
2024-05-09T20:25:30.063Z,24.92
2024-05-09T20:27:56.849Z,20.77
2024-05-09T20:30:31.223Z,10.95
2024-05-09T20:33:00.462Z,8.77
2024-05-09T20:35:27.552Z,6.88
2024-05-09T20:37:54.227Z,7.53
2024-05-09T20:40:28.735Z,6.07
2024-05-09T20:42:59.701Z,3.85
2024-05-09T20:45:26.481Z,4.97
2024-05-09T20:47:53.407Z,5.70
2024-05-09T20:50:28.541Z,4.72
2024-05-09T20:53:03.026Z,4.75
2024-05-09T20:55:30.299Z,2.85
2024-05-09T20:57:57.545Z,4.50
2024-05-09T21:00:33.860Z,6.30
2024-05-09T21:03:05.781Z,3.17
2024-05-09T21:05:33.105Z,3.67
2024-05-09T21:08:00.184Z,3.67
2024-05-09T21:10:27.399Z,3.47
2024-05-09T21:12:57.984Z,5.05
2024-05-09T21:15:24.717Z,3.72
2024-05-09T21:17:51.527Z,3.35
2024-05-09T21:20:23.955Z,3.15
2024-05-09T21:25:22.644Z,4.75
2024-05-09T21:27:49.376Z,4.93
2024-05-09T21:30:22.853Z,2.88
2024-05-09T21:32:58.578Z,4.72
2024-05-09T21:35:25.331Z,3.50
2024-05-09T21:37:52.104Z,4.97
2024-05-09T21:40:27.210Z,6.03
2024-05-09T21:43:00.653Z,3.78
2024-05-09T21:45:27.701Z,3.78
2024-05-09T21:47:54.643Z,4.03
2024-05-09T21:50:28.029Z,5.43
2024-05-09T21:52:59.240Z,4.20
2024-05-09T21:55:25.923Z,5.25
2024-05-09T21:57:52.633Z,5.88
2024-05-09T22:00:28.838Z,4.03
2024-05-09T22:03:02.305Z,3.90
2024-05-09T22:05:29.632Z,8.30
2024-05-09T22:07:57.282Z,5.45
2024-05-09T22:10:30.570Z,4.57
2024-05-09T22:13:01.273Z,5.07
2024-05-09T22:15:28.080Z,5.75
2024-05-09T22:17:55.682Z,4.35
2024-05-09T22:20:29.202Z,4.65
2024-05-09T22:23:02.916Z,2.92
2024-05-09T22:25:31.076Z,5.13
2024-05-09T22:27:58.687Z,4.47
2024-05-09T22:30:34.104Z,5.13
2024-05-09T22:33:05.475Z,3.95
2024-05-09T22:35:32.433Z,4.32
2024-05-09T22:37:59.137Z,3.05
2024-05-09T22:40:37.944Z,5.50
2024-05-09T22:43:12.828Z,4.65
2024-05-09T22:45:39.808Z,5.55
2024-05-09T22:48:07.421Z,4.15
2024-05-09T22:50:34.268Z,5.38
2024-05-09T22:53:01.153Z,7.07
2024-05-09T22:55:28.005Z,7.97
2024-05-09T22:57:55.418Z,5.00
2024-05-09T23:00:30.760Z,5.97
2024-05-09T23:02:59.730Z,4.75
2024-05-09T23:05:26.617Z,6.60
2024-05-09T23:07:53.414Z,3.72
2024-05-09T23:10:27.486Z,7.70
2024-05-09T23:12:59.076Z,4.40
2024-05-09T23:15:25.903Z,4.22
2024-05-09T23:17:52.859Z,5.13
2024-05-09T23:20:29.867Z,3.63
2024-05-09T23:25:29.932Z,5.68
2024-05-09T23:27:56.882Z,4.72
2024-05-09T23:30:33.243Z,5.07
2024-05-09T23:33:04.754Z,5.40
2024-05-09T23:35:31.661Z,6.75
2024-05-09T23:37:58.351Z,3.78
2024-05-09T23:40:36.390Z,6.03
2024-05-09T23:43:06.469Z,5.80
2024-05-09T23:45:33.336Z,4.28
2024-05-09T23:48:00.342Z,5.03
2024-05-09T23:50:34.282Z,7.50
2024-05-09T23:53:04.188Z,7.82
2024-05-09T23:55:31.958Z,4.07
2024-05-09T23:57:59.290Z,6.63
